Shinpu Maru — JD3456 — position and weather

sailwx.info

Track history (hours):
 
Tides and Currents Weather Stations Pressure Air Temp Water Temp Dewpoint Dewpoint Depression Visibility Wind Speed Wind Dir Waves Ship Positions

Shinpu Maru

Last reported at 2017-Nov-10 10:04 UTC. Time now 2017-Nov-19 21:51 UTC.
Position N 35°33' E 139°58'.
Warning: this ship's position is 9 days out of date.

Length 71 m; draft 4.2 m.

Type: Tanker. MMSI: 431004247.

Date/timePositionNaut miles runAvg speedWind from/ knotsBaromVisibWave heightAir tempDewpointWater temp
2017-Nov-10 10:04N 35°33' E 139°58'112.5
2017-Nov-10 09:59N 35°33' E 139°57'612.2
2017-Nov-10 09:31N 35°31' E 139°50'611.8
2017-Nov-10 09:00N 35°30' E 139°43'0 0.9
2017-Nov-10 08:31N 35°29' E 139°43'0 0.0
2017-Nov-10 08:01N 35°29' E 139°43'0 0.0
2017-Nov-10 07:31N 35°29' E 139°43'0 0.0
2017-Nov-10 07:01N 35°29' E 139°43'0 0.0
2017-Nov-10 06:30N 35°29' E 139°43'0 0.0
2017-Nov-10 06:00N 35°29' E 139°43'2 3.5
2017-Nov-10 05:31N 35°30' E 139°45'5 8.8
2017-Nov-10 04:59N 35°31' E 139°50'0 0.0
2017-Nov-10 04:22N 35°31' E 139°50'2 4.4
2017-Nov-10 04:00N 35°31' E 139°52'1 0.0
2017-Nov-08 07:56N 35°32' E 139°53'612.6
2017-Nov-08 07:27N 35°30' E 139°46'3 6.5
2017-Nov-08 07:01N 35°29' E 139°43'0 0.0
2017-Nov-08 06:30N 35°29' E 139°43'0 0.0
2017-Nov-08 06:01N 35°29' E 139°43'0 0.0
2017-Nov-08 05:31N 35°29' E 139°43'0 0.0
2017-Nov-08 05:01N 35°29' E 139°43'0 0.0
2017-Nov-08 04:31N 35°29' E 139°43'0 0.0
2017-Nov-08 04:01N 35°29' E 139°43'0 0.5
2017-Nov-08 03:31N 35°29' E 139°43'510.0
2017-Nov-08 03:01N 35°30' E 139°49'611.4
2017-Nov-08 02:30N 35°32' E 139°56'1 0.1
2017-Nov-07 02:44N 35°32' E 139°58'312.9
2017-Nov-07 02:30N 35°30' E 139°55'612.7
2017-Nov-07 02:00N 35°26' E 139°49'612.0
2017-Nov-07 01:30N 35°21' E 139°45'510.4
2017-Nov-07 01:00N 35°16' E 139°46'711.8
2017-Nov-07 00:24N 35°09' E 139°46'  
2017-Nov-04 11:39N 34°52' E 139°47'314.3
2017-Nov-04 11:27N 34°54' E 139°46'613.6
2017-Nov-04 11:00N 35°00' E 139°43'613.0
2017-Nov-04 10:31N 35°07' E 139°45'713.7
2017-Nov-04 10:00N 35°13' E 139°46'713.1
2017-Nov-04 09:30N 35°19' E 139°43'612.3
2017-Nov-04 09:00N 35°25' E 139°45'713.1
2017-Nov-04 08:30N 35°29' E 139°51'1212.1
2017-Nov-04 07:31N 35°33' E 140°05'0 7.2
2017-Nov-04 07:31N 35°33' E 140°05'0 0.0
2017-Nov-04 05:18N 35°33' E 140°05'0 0.0
2017-Nov-03 04:48N 35°33' E 140°05'5 0.4
2017-Nov-02 14:51N 35°32' E 139°59'411.9
2017-Nov-02 14:30N 35°30' E 139°54'611.5
2017-Nov-02 14:00N 35°26' E 139°49'611.4
2017-Nov-02 13:30N 35°22' E 139°45'510.6
2017-Nov-02 13:00N 35°16' E 139°46'510.4
2017-Nov-02 12:30N 35°11' E 139°46'611.8
2017-Nov-02 12:00N 35°06' E 139°44'611.5
2017-Nov-02 11:30N 35°01' E 139°40'712.5
2017-Nov-02 10:59N 34°57' E 139°34'  
Track history (hours):
 
Tides and Currents Weather Stations Pressure Air Temp Water Temp Dewpoint Dewpoint Depression Visibility Wind Speed Wind Dir Waves Ship Positions

Shinpu Maru

Last reported at 2017-Nov-10 10:04 UTC. Time now 2017-Nov-19 21:51 UTC.
Position N 35°33' E 139°58'.
Warning: this ship's position is 9 days out of date.

Length 71 m; draft 4.2 m.

Type: Tanker. MMSI: 431004247.

Date/timePositionNaut miles runAvg speedWind from/ knotsBaromVisibWave heightAir tempDewpointWater temp
2017-Nov-10 10:04N 35°33' E 139°58'112.5
2017-Nov-10 09:59N 35°33' E 139°57'612.2
2017-Nov-10 09:31N 35°31' E 139°50'611.8
2017-Nov-10 09:00N 35°30' E 139°43'0 0.9
2017-Nov-10 08:31N 35°29' E 139°43'0 0.0
2017-Nov-10 08:01N 35°29' E 139°43'0 0.0
2017-Nov-10 07:31N 35°29' E 139°43'0 0.0
2017-Nov-10 07:01N 35°29' E 139°43'0 0.0
2017-Nov-10 06:30N 35°29' E 139°43'0 0.0
2017-Nov-10 06:00N 35°29' E 139°43'2 3.5
2017-Nov-10 05:31N 35°30' E 139°45'5 8.8
2017-Nov-10 04:59N 35°31' E 139°50'0 0.0
2017-Nov-10 04:22N 35°31' E 139°50'2 4.4
2017-Nov-10 04:00N 35°31' E 139°52'1 0.0
2017-Nov-08 07:56N 35°32' E 139°53'612.6
2017-Nov-08 07:27N 35°30' E 139°46'3 6.5
2017-Nov-08 07:01N 35°29' E 139°43'0 0.0
2017-Nov-08 06:30N 35°29' E 139°43'0 0.0
2017-Nov-08 06:01N 35°29' E 139°43'0 0.0
2017-Nov-08 05:31N 35°29' E 139°43'0 0.0
2017-Nov-08 05:01N 35°29' E 139°43'0 0.0
2017-Nov-08 04:31N 35°29' E 139°43'0 0.0
2017-Nov-08 04:01N 35°29' E 139°43'0 0.5
2017-Nov-08 03:31N 35°29' E 139°43'510.0
2017-Nov-08 03:01N 35°30' E 139°49'611.4
2017-Nov-08 02:30N 35°32' E 139°56'1 0.1
2017-Nov-07 02:44N 35°32' E 139°58'312.9
2017-Nov-07 02:30N 35°30' E 139°55'612.7
2017-Nov-07 02:00N 35°26' E 139°49'612.0
2017-Nov-07 01:30N 35°21' E 139°45'510.4
2017-Nov-07 01:00N 35°16' E 139°46'711.8
2017-Nov-07 00:24N 35°09' E 139°46'  
2017-Nov-04 11:39N 34°52' E 139°47'314.3
2017-Nov-04 11:27N 34°54' E 139°46'613.6
2017-Nov-04 11:00N 35°00' E 139°43'613.0
2017-Nov-04 10:31N 35°07' E 139°45'713.7
2017-Nov-04 10:00N 35°13' E 139°46'713.1
2017-Nov-04 09:30N 35°19' E 139°43'612.3
2017-Nov-04 09:00N 35°25' E 139°45'713.1
2017-Nov-04 08:30N 35°29' E 139°51'1212.1
2017-Nov-04 07:31N 35°33' E 140°05'0 7.2
2017-Nov-04 07:31N 35°33' E 140°05'0 0.0
2017-Nov-04 05:18N 35°33' E 140°05'0 0.0
2017-Nov-03 04:48N 35°33' E 140°05'5 0.4
2017-Nov-02 14:51N 35°32' E 139°59'411.9
2017-Nov-02 14:30N 35°30' E 139°54'611.5
2017-Nov-02 14:00N 35°26' E 139°49'611.4
2017-Nov-02 13:30N 35°22' E 139°45'510.6
2017-Nov-02 13:00N 35°16' E 139°46'510.4
2017-Nov-02 12:30N 35°11' E 139°46'611.8
2017-Nov-02 12:00N 35°06' E 139°44'611.5
2017-Nov-02 11:30N 35°01' E 139°40'712.5
2017-Nov-02 10:59N 34°57' E 139°34'  

Dump ship's entire track history